sensor_id;sensor_type;location;lat;lon;timestamp;pressure;altitude;pressure_sealevel;temperature;humidity
74913;BME280;63878;55.624;37.304;2023-08-07T00:06:22;98965.06;;;25.61;52.08
74913;BME280;63878;55.624;37.304;2023-08-07T00:16:22;98960.75;;;25.73;51.40
74913;BME280;63878;55.624;37.304;2023-08-07T00:26:23;98966.94;;;25.80;51.10
74913;BME280;63878;55.624;37.304;2023-08-07T00:36:23;98956.41;;;25.59;51.20
74913;BME280;63878;55.624;37.304;2023-08-07T00:46:24;98957.00;;;25.54;51.47
74913;BME280;63878;55.624;37.304;2023-08-07T00:56:25;98937.22;;;25.42;52.33
74913;BME280;63878;55.624;37.304;2023-08-07T01:06:26;98942.53;;;25.22;52.40
74913;BME280;63878;55.624;37.304;2023-08-07T01:26:45;98926.81;;;25.06;53.16
74913;BME280;63878;55.624;37.304;2023-08-07T01:36:48;98935.00;;;24.97;53.42
74913;BME280;63878;55.624;37.304;2023-08-07T01:46:49;98916.75;;;24.66;54.18
74913;BME280;63878;55.624;37.304;2023-08-07T01:56:50;98922.56;;;24.77;54.10
74913;BME280;63878;55.624;37.304;2023-08-07T02:06:50;98918.53;;;24.53;54.76
74913;BME280;63878;55.624;37.304;2023-08-07T02:16:50;98912.97;;;24.54;54.96
74913;BME280;63878;55.624;37.304;2023-08-07T02:26:51;98916.06;;;24.51;54.67
74913;BME280;63878;55.624;37.304;2023-08-07T02:36:52;98913.25;;;24.66;54.17
74913;BME280;63878;55.624;37.304;2023-08-07T02:46:52;98887.28;;;24.66;53.97
74913;BME280;63878;55.624;37.304;2023-08-07T02:56:52;98899.44;;;25.17;52.23
74913;BME280;63878;55.624;37.304;2023-08-07T03:06:53;98916.38;;;25.44;52.09
74913;BME280;63878;55.624;37.304;2023-08-07T03:16:53;98924.84;;;25.94;50.80
74913;BME280;63878;55.624;37.304;2023-08-07T03:26:54;98913.00;;;26.41;49.42
74913;BME280;63878;55.624;37.304;2023-08-07T03:36:55;98907.00;;;26.39;48.81
74913;BME280;63878;55.624;37.304;2023-08-07T03:46:55;98909.25;;;27.00;47.52
74913;BME280;63878;55.624;37.304;2023-08-07T03:56:56;98908.91;;;26.90;48.13
74913;BME280;63878;55.624;37.304;2023-08-07T04:06:56;98905.22;;;27.23;46.58
74913;BME280;63878;55.624;37.304;2023-08-07T04:16:57;98890.16;;;27.96;44.68
74913;BME280;63878;55.624;37.304;2023-08-07T04:26:57;98895.81;;;28.50;43.64
74913;BME280;63878;55.624;37.304;2023-08-07T04:36:58;98903.81;;;28.38;43.77
74913;BME280;63878;55.624;37.304;2023-08-07T04:46:58;98899.13;;;29.00;42.29
74913;BME280;63878;55.624;37.304;2023-08-07T04:56:59;98899.44;;;28.92;42.01
74913;BME280;63878;55.624;37.304;2023-08-07T05:07:00;98892.63;;;29.20;41.73
74913;BME280;63878;55.624;37.304;2023-08-07T05:17:00;98883.22;;;29.88;39.35
74913;BME280;63878;55.624;37.304;2023-08-07T05:27:01;98880.81;;;29.33;41.55
74913;BME280;63878;55.624;37.304;2023-08-07T05:37:02;98860.38;;;29.25;40.33
74913;BME280;63878;55.624;37.304;2023-08-07T05:47:02;98857.38;;;29.45;40.19
74913;BME280;63878;55.624;37.304;2023-08-07T05:57:03;98846.66;;;29.26;40.10
74913;BME280;63878;55.624;37.304;2023-08-07T06:07:05;98851.09;;;29.63;38.90
74913;BME280;63878;55.624;37.304;2023-08-07T06:17:05;98842.50;;;29.66;39.33
74913;BME280;63878;55.624;37.304;2023-08-07T06:27:06;98838.69;;;29.31;40.12
74913;BME280;63878;55.624;37.304;2023-08-07T06:37:06;98838.91;;;29.18;39.64
74913;BME280;63878;55.624;37.304;2023-08-07T06:47:07;98841.34;;;29.08;40.03
74913;BME280;63878;55.624;37.304;2023-08-07T06:57:08;98832.22;;;28.49;40.99
74913;BME280;63878;55.624;37.304;2023-08-07T07:07:09;98835.94;;;28.48;40.85
74913;BME280;63878;55.624;37.304;2023-08-07T07:17:09;98812.84;;;28.82;39.63
74913;BME280;63878;55.624;37.304;2023-08-07T07:27:10;98825.84;;;28.43;40.95
74913;BME280;63878;55.624;37.304;2023-08-07T07:37:10;98815.00;;;28.50;39.97
74913;BME280;63878;55.624;37.304;2023-08-07T07:47:11;98795.47;;;28.18;41.35
74913;BME280;63878;55.624;37.304;2023-08-07T07:57:11;98796.16;;;28.32;41.83
74913;BME280;63878;55.624;37.304;2023-08-07T08:07:12;98799.81;;;28.37;41.86
74913;BME280;63878;55.624;37.304;2023-08-07T08:17:12;98792.88;;;28.90;39.96
74913;BME280;63878;55.624;37.304;2023-08-07T08:27:13;98785.84;;;28.59;40.60
74913;BME280;63878;55.624;37.304;2023-08-07T08:37:13;98779.25;;;28.85;40.17
74913;BME280;63878;55.624;37.304;2023-08-07T08:47:14;98767.41;;;28.26;40.23
74913;BME280;63878;55.624;37.304;2023-08-07T08:57:17;98761.16;;;28.32;40.93
74913;BME280;63878;55.624;37.304;2023-08-07T09:07:19;98743.88;;;28.51;40.44
74913;BME280;63878;55.624;37.304;2023-08-07T09:17:23;98750.38;;;27.95;40.88
74913;BME280;63878;55.624;37.304;2023-08-07T09:27:24;98746.50;;;27.91;39.41
74913;BME280;63878;55.624;37.304;2023-08-07T09:37:25;98729.63;;;27.84;40.73
74913;BME280;63878;55.624;37.304;2023-08-07T09:47:25;98726.91;;;28.02;40.46
74913;BME280;63878;55.624;37.304;2023-08-07T09:57:26;98711.97;;;27.88;40.42
74913;BME280;63878;55.624;37.304;2023-08-07T10:07:26;98701.97;;;28.07;40.60
74913;BME280;63878;55.624;37.304;2023-08-07T10:17:27;98691.91;;;28.02;39.75
74913;BME280;63878;55.624;37.304;2023-08-07T10:27:31;98693.41;;;27.98;39.57
74913;BME280;63878;55.624;37.304;2023-08-07T10:37:39;98670.50;;;28.07;40.38
74913;BME280;63878;55.624;37.304;2023-08-07T10:47:40;98641.59;;;28.03;40.28
74913;BME280;63878;55.624;37.304;2023-08-07T10:57:42;98654.47;;;28.12;41.08
74913;BME280;63878;55.624;37.304;2023-08-07T11:07:43;98629.44;;;28.12;40.63
74913;BME280;63878;55.624;37.304;2023-08-07T11:17:44;98624.84;;;28.31;40.58
74913;BME280;63878;55.624;37.304;2023-08-07T11:27:44;98635.53;;;28.61;39.45
74913;BME280;63878;55.624;37.304;2023-08-07T11:37:46;98624.19;;;28.70;39.86
74913;BME280;63878;55.624;37.304;2023-08-07T11:47:46;98632.84;;;28.61;40.30
74913;BME280;63878;55.624;37.304;2023-08-07T11:57:47;98596.19;;;28.71;39.88
74913;BME280;63878;55.624;37.304;2023-08-07T12:07:48;98576.97;;;28.56;41.13
74913;BME280;63878;55.624;37.304;2023-08-07T12:17:49;98564.78;;;28.65;39.27
74913;BME280;63878;55.624;37.304;2023-08-07T12:27:49;98564.41;;;28.62;41.06
74913;BME280;63878;55.624;37.304;2023-08-07T12:37:50;98553.31;;;28.58;41.39
74913;BME280;63878;55.624;37.304;2023-08-07T12:47:51;98535.63;;;28.62;41.75
74913;BME280;63878;55.624;37.304;2023-08-07T12:57:52;98533.38;;;28.59;41.47
74913;BME280;63878;55.624;37.304;2023-08-07T13:07:53;98502.69;;;28.60;41.05
74913;BME280;63878;55.624;37.304;2023-08-07T13:17:53;98501.88;;;28.60;41.70
74913;BME280;63878;55.624;37.304;2023-08-07T13:27:54;98489.31;;;28.65;39.82
74913;BME280;63878;55.624;37.304;2023-08-07T13:37:54;98470.97;;;28.62;40.86
74913;BME280;63878;55.624;37.304;2023-08-07T13:47:55;98453.25;;;28.66;40.66
74913;BME280;63878;55.624;37.304;2023-08-07T13:57:56;98443.53;;;28.54;39.85
74913;BME280;63878;55.624;37.304;2023-08-07T14:07:56;98435.56;;;28.70;39.71
74913;BME280;63878;55.624;37.304;2023-08-07T14:17:56;98446.13;;;28.89;39.11
74913;BME280;63878;55.624;37.304;2023-08-07T14:27:57;98426.38;;;28.83;40.46
74913;BME280;63878;55.624;37.304;2023-08-07T14:37:58;98426.03;;;28.80;40.29
74913;BME280;63878;55.624;37.304;2023-08-07T14:47:59;98408.41;;;28.89;39.52
74913;BME280;63878;55.624;37.304;2023-08-07T14:57:59;98402.41;;;28.70;40.74
74913;BME280;63878;55.624;37.304;2023-08-07T15:08:00;98402.84;;;28.67;40.04
74913;BME280;63878;55.624;37.304;2023-08-07T15:18:01;98390.16;;;28.79;39.54
74913;BME280;63878;55.624;37.304;2023-08-07T15:28:01;98378.13;;;28.70;39.88
74913;BME280;63878;55.624;37.304;2023-08-07T15:38:02;98368.50;;;28.74;40.38
74913;BME280;63878;55.624;37.304;2023-08-07T15:48:03;98366.19;;;28.66;41.10
74913;BME280;63878;55.624;37.304;2023-08-07T15:58:04;98374.00;;;28.79;41.14
74913;BME280;63878;55.624;37.304;2023-08-07T16:08:05;98368.91;;;28.54;41.75
74913;BME280;63878;55.624;37.304;2023-08-07T16:18:06;98346.94;;;28.34;42.60
74913;BME280;63878;55.624;37.304;2023-08-07T16:28:06;98350.38;;;28.17;42.87
74913;BME280;63878;55.624;37.304;2023-08-07T16:38:07;98326.25;;;28.11;42.49
74913;BME280;63878;55.624;37.304;2023-08-07T16:48:08;98325.22;;;28.00;43.06
74913;BME280;63878;55.624;37.304;2023-08-07T16:58:08;98331.31;;;27.84;43.84
74913;BME280;63878;55.624;37.304;2023-08-07T17:08:09;98342.91;;;27.73;43.96
74913;BME280;63878;55.624;37.304;2023-08-07T17:18:09;98329.06;;;27.46;43.86
74913;BME280;63878;55.624;37.304;2023-08-07T17:28:10;98342.94;;;27.31;44.28
74913;BME280;63878;55.624;37.304;2023-08-07T17:38:10;98337.00;;;27.29;44.77
74913;BME280;63878;55.624;37.304;2023-08-07T17:48:11;98328.53;;;27.13;44.68
74913;BME280;63878;55.624;37.304;2023-08-07T17:58:11;98366.25;;;27.07;43.93
74913;BME280;63878;55.624;37.304;2023-08-07T18:08:12;98393.44;;;26.99;44.78
74913;BME280;63878;55.624;37.304;2023-08-07T18:18:12;98366.38;;;26.82;45.02
74913;BME280;63878;55.624;37.304;2023-08-07T18:28:13;98380.09;;;26.74;45.93
74913;BME280;63878;55.624;37.304;2023-08-07T18:38:14;98368.75;;;26.42;46.58
74913;BME280;63878;55.624;37.304;2023-08-07T18:48:15;98365.91;;;26.55;46.13
74913;BME280;63878;55.624;37.304;2023-08-07T18:58:15;98358.50;;;26.32;47.45
74913;BME280;63878;55.624;37.304;2023-08-07T19:08:16;98351.91;;;26.28;47.37
74913;BME280;63878;55.624;37.304;2023-08-07T19:18:16;98342.91;;;26.04;48.19
74913;BME280;63878;55.624;37.304;2023-08-07T19:28:17;98356.63;;;26.14;48.00
74913;BME280;63878;55.624;37.304;2023-08-07T19:38:18;98324.34;;;25.84;49.12
74913;BME280;63878;55.624;37.304;2023-08-07T19:48:18;98300.72;;;25.68;49.35
74913;BME280;63878;55.624;37.304;2023-08-07T19:58:19;98272.25;;;25.48;49.82
74913;BME280;63878;55.624;37.304;2023-08-07T20:08:19;98233.41;;;25.33;49.53
74913;BME280;63878;55.624;37.304;2023-08-07T20:18:20;98251.69;;;25.61;48.79
74913;BME280;63878;55.624;37.304;2023-08-07T20:28:20;98268.09;;;25.52;48.80
74913;BME280;63878;55.624;37.304;2023-08-07T20:38:21;98252.56;;;25.36;48.96
74913;BME280;63878;55.624;37.304;2023-08-07T20:48:21;98250.81;;;25.48;48.46
74913;BME280;63878;55.624;37.304;2023-08-07T20:58:22;98237.97;;;25.32;48.94
74913;BME280;63878;55.624;37.304;2023-08-07T21:08:23;98229.63;;;25.40;48.64
74913;BME280;63878;55.624;37.304;2023-08-07T21:18:24;98229.28;;;25.12;49.60
74913;BME280;63878;55.624;37.304;2023-08-07T21:28:25;98226.66;;;25.05;49.51
74913;BME280;63878;55.624;37.304;2023-08-07T21:38:26;98235.88;;;24.84;50.39
74913;BME280;63878;55.624;37.304;2023-08-07T21:48:26;98228.19;;;24.94;49.73
74913;BME280;63878;55.624;37.304;2023-08-07T21:58:27;98325.28;;;25.21;49.04
74913;BME280;63878;55.624;37.304;2023-08-07T22:08:27;98278.56;;;25.11;49.32
74913;BME280;63878;55.624;37.304;2023-08-07T22:18:28;98291.97;;;25.11;49.47
74913;BME280;63878;55.624;37.304;2023-08-07T22:28:28;98278.25;;;24.62;50.75
74913;BME280;63878;55.624;37.304;2023-08-07T22:38:29;98282.53;;;24.70;50.35
74913;BME280;63878;55.624;37.304;2023-08-07T22:48:30;98239.47;;;24.33;51.84
74913;BME280;63878;55.624;37.304;2023-08-07T22:58:30;98221.94;;;24.44;51.04
74913;BME280;63878;55.624;37.304;2023-08-07T23:08:30;98215.97;;;24.42;51.03
74913;BME280;63878;55.624;37.304;2023-08-07T23:18:31;98227.13;;;24.26;51.36
74913;BME280;63878;55.624;37.304;2023-08-07T23:28:32;98208.47;;;24.12;51.29
74913;BME280;63878;55.624;37.304;2023-08-07T23:38:32;98212.34;;;24.23;51.37
74913;BME280;63878;55.624;37.304;2023-08-07T23:48:33;98218.59;;;24.04;51.91
74913;BME280;63878;55.624;37.304;2023-08-07T23:58:33;98200.78;;;23.84;52.58
